Time;durP1;ratioP1;P1;durP2;ratioP2;P2;SDS_P1;SDS_P2;PMS_P1;PMS_P2;Temp;Humidity;BMP_temperature;BMP_pressure;BME280_temperature;BME280_humidity;BME280_pressure;Samples;Min_cycle;Max_cycle;Signal;HPM_P1;HPM_P2
2021/05/09 00:01:28;;;;;;;6.13;3.00;;;;;;;7.42;100.00;96016.16;5080386;28;20372;-71
2021/05/09 00:03:55;;;;;;;4.80;2.53;;;;;;;7.34;100.00;96011.75;5076235;28;20204;-71
2021/05/09 00:06:22;;;;;;;5.93;2.20;;;;;;;7.51;100.00;96010.78;5079413;28;20199;-71
2021/05/09 00:08:49;;;;;;;4.53;2.40;;;;;;;7.47;100.00;96011.25;5079714;28;20204;-71
2021/05/09 00:11:15;;;;;;;5.77;2.47;;;;;;;7.35;100.00;96002.88;5079768;28;20576;-70
2021/05/09 00:13:42;;;;;;;4.03;2.50;;;;;;;7.45;100.00;96002.75;5079090;28;20223;-71
2021/05/09 00:16:08;;;;;;;3.40;2.30;;;;;;;7.47;100.00;96003.38;5080385;28;20208;-70
2021/05/09 00:18:34;;;;;;;4.23;3.00;;;;;;;7.48;100.00;96012.91;5079504;28;20204;-70
2021/05/09 00:21:00;;;;;;;6.13;2.87;;;;;;;7.37;100.00;96008.81;5079275;28;20301;-72
2021/05/09 00:23:27;;;;;;;5.33;2.90;;;;;;;7.26;100.00;96006.50;5080445;28;20204;-70
2021/05/09 00:25:53;;;;;;;4.17;2.60;;;;;;;7.30;100.00;96005.19;5078989;28;20200;-71
2021/05/09 00:28:19;;;;;;;3.63;2.37;;;;;;;7.24;100.00;96009.44;5079104;28;20192;-70
2021/05/09 00:30:46;;;;;;;7.37;2.67;;;;;;;7.22;100.00;96000.91;5079386;28;20270;-71
2021/05/09 00:33:13;;;;;;;4.90;2.90;;;;;;;6.95;100.00;95999.41;5079730;28;20204;-70
2021/05/09 00:35:39;;;;;;;4.97;2.50;;;;;;;6.99;100.00;95998.13;5078560;28;20212;-72
2021/05/09 00:38:05;;;;;;;4.87;2.50;;;;;;;7.04;100.00;96000.22;5079200;28;20260;-71
2021/05/09 00:40:32;;;;;;;11.03;3.20;;;;;;;7.02;100.00;96000.41;5078739;28;20771;-72
2021/05/09 00:42:58;;;;;;;3.83;2.30;;;;;;;6.96;100.00;95997.59;5079396;28;20207;-71
2021/05/09 00:45:24;;;;;;;4.87;2.60;;;;;;;6.82;100.00;95990.38;5077751;28;20287;-71
2021/05/09 00:47:50;;;;;;;4.47;2.77;;;;;;;6.79;100.00;95986.28;5078744;28;20200;-72
2021/05/09 00:50:18;;;;;;;5.17;2.27;;;;;;;6.63;100.00;95988.03;5079349;28;20242;-71
2021/05/09 00:52:46;;;;;;;4.03;2.70;;;;;;;6.62;100.00;95983.78;5078721;28;20662;-71
2021/05/09 00:55:13;;;;;;;4.37;2.53;;;;;;;6.44;100.00;95979.63;5078600;28;20227;-71
2021/05/09 00:57:42;;;;;;;3.63;2.60;;;;;;;6.53;100.00;95976.06;5078171;28;20249;-70
2021/05/09 01:00:10;;;;;;;4.03;2.47;;;;;;;6.61;100.00;95976.09;5078870;28;20294;-70
2021/05/09 01:02:36;;;;;;;5.50;2.60;;;;;;;6.48;100.00;95979.16;5075517;28;20204;-71
2021/05/09 01:05:04;;;;;;;5.43;2.60;;;;;;;6.39;100.00;95971.41;5078223;28;20211;-72
2021/05/09 01:07:31;;;;;;;3.43;2.60;;;;;;;6.49;100.00;95978.19;5078910;28;20310;-70
2021/05/09 01:09:59;;;;;;;6.87;3.00;;;;;;;6.57;100.00;95969.53;5078150;28;20232;-70
2021/05/09 01:12:25;;;;;;;3.70;2.40;;;;;;;6.71;100.00;95972.34;5078189;28;20702;-71
2021/05/09 01:14:52;;;;;;;3.80;2.50;;;;;;;6.69;100.00;95969.06;5079319;28;20204;-70
2021/05/09 01:17:18;;;;;;;6.10;2.60;;;;;;;6.70;100.00;95971.53;5077596;28;20894;-71
2021/05/09 01:19:44;;;;;;;3.50;2.47;;;;;;;6.74;100.00;95969.41;5078663;28;20273;-71
2021/05/09 01:22:11;;;;;;;4.60;2.53;;;;;;;6.64;100.00;95966.09;5078655;28;20214;-70
2021/05/09 01:24:38;;;;;;;7.23;2.50;;;;;;;6.53;100.00;95961.19;5077765;28;20207;-70
2021/05/09 01:27:05;;;;;;;5.33;2.50;;;;;;;6.64;100.00;95962.69;5076994;28;20960;-72
2021/05/09 01:29:32;;;;;;;7.27;2.77;;;;;;;6.66;100.00;95954.50;5079499;28;20887;-71
2021/05/09 01:31:59;;;;;;;3.47;2.53;;;;;;;6.65;100.00;95952.03;5078015;28;20215;-70
2021/05/09 01:34:26;;;;;;;3.87;2.70;;;;;;;6.69;100.00;95955.97;5078355;28;20234;-70
2021/05/09 01:36:52;;;;;;;6.13;2.73;;;;;;;6.66;100.00;95951.88;5077530;28;20219;-72
2021/05/09 01:39:18;;;;;;;3.33;2.30;;;;;;;6.63;100.00;95959.22;5078614;28;20757;-70
2021/05/09 01:41:44;;;;;;;3.10;2.40;;;;;;;6.43;100.00;95959.66;5077853;28;20215;-71
2021/05/09 01:44:10;;;;;;;4.07;2.50;;;;;;;6.59;100.00;95965.75;5079111;28;20751;-70
2021/05/09 01:46:36;;;;;;;4.03;2.70;;;;;;;6.58;100.00;95958.91;5076891;28;20202;-70
2021/05/09 01:49:02;;;;;;;3.77;2.47;;;;;;;6.59;100.00;95963.16;5077862;28;20199;-71
2021/05/09 01:51:28;;;;;;;2.87;2.20;;;;;;;6.59;100.00;95957.09;5077371;28;20200;-71
2021/05/09 01:53:54;;;;;;;5.90;2.60;;;;;;;6.43;100.00;95960.50;5077906;28;20573;-72
2021/05/09 01:56:21;;;;;;;3.50;2.30;;;;;;;6.42;100.00;95958.03;5076305;28;20204;-71
2021/05/09 01:58:47;;;;;;;3.20;2.40;;;;;;;6.42;100.00;95964.06;5077875;28;20208;-71
2021/05/09 02:01:13;;;;;;;4.13;2.73;;;;;;;6.38;100.00;95965.38;5078245;28;20692;-71
2021/05/09 02:03:39;;;;;;;3.23;2.40;;;;;;;6.33;100.00;95959.78;5076988;28;20660;-71
2021/05/09 02:06:05;;;;;;;2.77;2.33;;;;;;;6.25;100.00;95959.78;5076859;28;20202;-68
2021/05/09 02:08:31;;;;;;;2.40;1.83;;;;;;;6.33;100.00;95951.94;5076394;28;20215;-71
2021/05/09 02:10:57;;;;;;;4.03;2.27;;;;;;;6.33;100.00;95954.56;5077404;28;20227;-71
2021/05/09 02:13:24;;;;;;;3.63;2.50;;;;;;;6.36;100.00;95946.38;5077241;28;20215;-69
2021/05/09 02:15:50;;;;;;;5.13;2.60;;;;;;;6.34;100.00;95937.06;5077306;28;20627;-69
2021/05/09 02:18:16;;;;;;;3.67;2.40;;;;;;;6.32;100.00;95939.03;5077049;28;20318;-68
2021/05/09 02:20:42;;;;;;;3.57;2.40;;;;;;;6.28;100.00;95935.91;5077347;28;20674;-69
2021/05/09 02:23:08;;;;;;;2.77;2.20;;;;;;;6.17;100.00;95941.44;5077167;28;20373;-69
2021/05/09 02:25:34;;;;;;;2.77;2.20;;;;;;;6.32;100.00;95936.41;5076187;28;20208;-71
2021/05/09 02:28:00;;;;;;;7.13;2.60;;;;;;;6.37;100.00;95934.13;5076201;28;20199;-71
2021/05/09 02:30:27;;;;;;;3.60;2.33;;;;;;;6.27;100.00;95936.06;5077454;28;20814;-69
2021/05/09 02:32:53;;;;;;;3.40;2.30;;;;;;;6.27;100.00;95936.06;5073886;28;20213;-70
2021/05/09 02:35:19;;;;;;;3.77;2.13;;;;;;;6.32;100.00;95931.97;5076672;28;20203;-69
2021/05/09 02:37:45;;;;;;;3.37;2.10;;;;;;;6.22;100.00;95931.31;5077279;28;20234;-70
2021/05/09 02:40:12;;;;;;;5.63;2.27;;;;;;;6.18;100.00;95916.88;5077211;28;20223;-69
2021/05/09 02:42:38;;;;;;;7.27;2.70;;;;;;;6.18;100.00;95916.09;5076966;28;20703;-69
2021/05/09 02:45:05;;;;;;;6.23;2.50;;;;;;;6.22;100.00;95923.47;5076393;28;20208;-71
2021/05/09 02:47:32;;;;;;;5.60;2.50;;;;;;;6.03;100.00;95943.81;5078087;28;20204;-71
2021/05/09 02:50:00;;;;;;;4.07;2.67;;;;;;;6.03;100.00;95938.56;5077123;28;21251;-69
2021/05/09 02:52:27;;;;;;;2.87;2.37;;;;;;;6.05;100.00;95932.22;5077208;28;20215;-71
2021/05/09 02:54:53;;;;;;;2.90;2.43;;;;;;;6.13;100.00;95932.22;5077006;28;20211;-71
2021/05/09 02:57:19;;;;;;;3.83;2.57;;;;;;;6.10;100.00;95935.19;5076526;28;20220;-68
2021/05/09 02:59:45;;;;;;;3.77;2.80;;;;;;;5.97;100.00;95933.16;5076652;28;20712;-70
2021/05/09 03:02:11;;;;;;;3.07;2.70;;;;;;;5.83;100.00;95929.34;5074421;28;20207;-70
2021/05/09 03:04:39;;;;;;;6.83;2.60;;;;;;;5.85;100.00;95939.63;5077257;28;20208;-69
2021/05/09 03:07:05;;;;;;;4.10;2.43;;;;;;;6.05;100.00;95937.44;5076382;28;20210;-70
2021/05/09 03:09:31;;;;;;;4.20;2.47;;;;;;;6.16;100.00;95942.41;5076804;28;21277;-69
2021/05/09 03:11:57;;;;;;;2.87;2.33;;;;;;;6.12;100.00;95940.25;5077054;28;20216;-71
2021/05/09 03:14:23;;;;;;;3.50;2.50;;;;;;;6.21;100.00;95940.13;5076317;28;20243;-71
2021/05/09 03:16:49;;;;;;;4.33;2.63;;;;;;;6.17;100.00;95936.22;5076128;28;20231;-69
2021/05/09 03:19:15;;;;;;;6.17;2.53;;;;;;;6.02;100.00;95941.34;5077834;28;20219;-69
2021/05/09 03:21:42;;;;;;;3.80;2.27;;;;;;;5.97;100.00;95944.44;5080476;28;20210;-71
2021/05/09 03:24:10;;;;;;;4.43;2.60;;;;;;;5.87;100.00;95948.13;5083826;28;20199;-69
2021/05/09 03:26:36;;;;;;;3.73;2.67;;;;;;;5.87;100.00;95942.91;5082982;28;20203;-70
2021/05/09 03:29:03;;;;;;;4.03;2.37;;;;;;;6.00;100.00;95943.31;5083624;28;20584;-70
2021/05/09 03:31:29;;;;;;;3.17;2.47;;;;;;;6.03;100.00;95943.81;5083433;28;20196;-69
2021/05/09 03:33:55;;;;;;;4.83;2.67;;;;;;;5.97;100.00;95948.84;5083675;28;20199;-68
2021/05/09 03:36:21;;;;;;;5.83;2.70;;;;;;;5.97;100.00;95948.84;5082296;28;20200;-70
2021/05/09 03:38:48;;;;;;;3.07;2.50;;;;;;;5.98;100.00;95945.25;5082788;28;20214;-71
2021/05/09 03:41:14;;;;;;;3.40;2.50;;;;;;;5.92;100.00;95948.47;5083291;28;20206;-70
2021/05/09 03:43:40;;;;;;;4.30;2.47;;;;;;;5.89;100.00;95951.41;5083319;28;20199;-68
2021/05/09 03:46:06;;;;;;;10.60;2.33;;;;;;;5.70;100.00;95956.84;5082123;28;20688;-69
2021/05/09 03:48:32;;;;;;;2.60;2.20;;;;;;;5.78;100.00;95955.13;5083271;28;20208;-70
2021/05/09 03:50:59;;;;;;;3.07;2.07;;;;;;;5.71;100.00;95948.03;5083341;28;20227;-70
2021/05/09 03:53:27;;;;;;;5.10;2.60;;;;;;;5.66;100.00;95952.88;5082874;28;20207;-69
2021/05/09 03:55:54;;;;;;;3.47;2.27;;;;;;;5.77;100.00;95942.22;5082596;28;20210;-68
2021/05/09 03:58:20;;;;;;;2.90;2.00;;;;;;;5.86;100.00;95936.06;5083593;28;20691;-71
2021/05/09 04:00:46;;;;;;;3.03;2.23;;;;;;;5.84;100.00;95944.06;5083878;28;20224;-71
2021/05/09 04:03:20;;;;;;;5.13;2.60;;;;;;;5.60;100.00;95943.03;5080319;28;20234;-70
2021/05/09 04:05:47;;;;;;;7.37;2.47;;;;;;;5.57;100.00;95940.75;5081180;28;20246;-70
2021/05/09 04:08:13;;;;;;;3.90;2.27;;;;;;;5.67;100.00;95936.25;5083291;28;21194;-67
2021/05/09 04:10:39;;;;;;;2.73;2.23;;;;;;;5.71;100.00;95942.78;5083006;28;20317;-69
2021/05/09 04:13:06;;;;;;;2.90;2.20;;;;;;;5.67;100.00;95933.63;5082697;28;20682;-68
2021/05/09 04:15:32;;;;;;;5.00;2.70;;;;;;;5.80;100.00;95939.28;5082595;28;20253;-71
2021/05/09 04:17:58;;;;;;;3.47;2.37;;;;;;;5.82;100.00;95932.91;5082858;28;20595;-69
2021/05/09 04:20:23;;;;;;;4.57;2.10;;;;;;;5.85;100.00;95926.56;5082856;28;21109;-70
2021/05/09 04:22:49;;;;;;;4.83;2.90;;;;;;;5.87;100.00;95928.06;5083392;28;20249;-70
2021/05/09 04:25:15;;;;;;;4.63;2.27;;;;;;;5.82;100.00;95932.13;5082170;28;21517;-69
2021/05/09 04:27:41;;;;;;;3.23;2.20;;;;;;;5.86;100.00;95931.63;5082786;28;20280;-71
2021/05/09 04:30:10;;;;;;;7.57;2.60;;;;;;;5.95;100.00;95940.34;5083498;28;21034;-71
2021/05/09 04:32:36;;;;;;;4.13;2.27;;;;;;;6.00;100.00;95936.28;5079168;28;20200;-69
2021/05/09 04:35:03;;;;;;;3.90;2.60;;;;;;;5.98;100.00;95940.84;5079428;28;21199;-70
2021/05/09 04:37:28;;;;;;;4.40;2.70;;;;;;;6.05;100.00;95945.28;5079589;28;20226;-70
2021/05/09 04:39:54;;;;;;;6.67;2.50;;;;;;;6.26;100.00;95944.88;5079706;28;20220;-67
2021/05/09 04:42:20;;;;;;;5.57;2.10;;;;;;;6.31;100.00;95947.84;5079549;28;20212;-69
2021/05/09 04:44:46;;;;;;;3.93;2.40;;;;;;;6.44;100.00;95943.81;5079470;28;20610;-69
2021/05/09 04:47:13;;;;;;;3.07;2.40;;;;;;;6.57;100.00;95943.34;5078922;28;20229;-70
2021/05/09 04:49:39;;;;;;;3.70;2.50;;;;;;;6.64;100.00;95939.94;5079307;28;20223;-71
2021/05/09 04:52:05;;;;;;;3.53;2.60;;;;;;;6.77;100.00;95951.59;5079674;28;20211;-70
2021/05/09 04:54:31;;;;;;;4.17;2.30;;;;;;;6.90;100.00;95938.84;5078599;28;20200;-68
2021/05/09 04:56:57;;;;;;;3.50;2.23;;;;;;;7.02;100.00;95944.59;5079006;28;20234;-68
2021/05/09 04:59:23;;;;;;;4.37;2.10;;;;;;;7.13;100.00;95937.22;5079054;28;20344;-69
2021/05/09 05:01:49;;;;;;;3.80;2.23;;;;;;;7.33;100.00;95944.59;5077056;28;20208;-69
2021/05/09 05:04:16;;;;;;;5.30;2.33;;;;;;;7.44;100.00;95948.69;5079621;28;20207;-71
2021/05/09 05:06:42;;;;;;;3.63;2.53;;;;;;;7.53;100.00;95951.13;5077749;28;20203;-70
2021/05/09 05:09:07;;;;;;;3.40;2.30;;;;;;;7.61;100.00;95940.66;5079321;28;20590;-71
2021/05/09 05:11:33;;;;;;;6.33;2.00;;;;;;;7.72;100.00;95935.03;5079661;28;20211;-71
2021/05/09 05:13:59;;;;;;;2.93;2.20;;;;;;;7.80;100.00;95935.00;5078837;28;20269;-68
2021/05/09 05:16:25;;;;;;;6.00;2.30;;;;;;;7.92;100.00;95936.31;5078061;28;20276;-72
2021/05/09 05:18:51;;;;;;;6.10;2.60;;;;;;;8.05;100.00;95926.91;5078185;28;20265;-69
2021/05/09 05:21:18;;;;;;;8.23;2.37;;;;;;;8.18;100.00;95926.41;5079322;28;20207;-70
2021/05/09 05:23:44;;;;;;;5.00;2.80;;;;;;;8.28;100.00;95927.84;5078380;28;20204;-71
2021/05/09 05:26:10;;;;;;;4.50;2.90;;;;;;;8.34;100.00;95934.22;5078508;28;20206;-69
2021/05/09 05:28:36;;;;;;;7.00;4.70;;;;;;;8.39;100.00;95935.34;5078947;28;20384;-69
2021/05/09 05:31:02;;;;;;;8.27;5.60;;;;;;;8.52;100.00;95935.63;5078652;28;20284;-69
2021/05/09 05:33:30;;;;;;;10.83;6.60;;;;;;;8.54;100.00;95934.47;5076198;28;20273;-70
2021/05/09 05:35:57;;;;;;;13.63;6.30;;;;;;;8.57;100.00;95926.22;5077493;28;20210;-70
2021/05/09 05:38:24;;;;;;;11.33;5.67;;;;;;;8.75;100.00;95929.41;5078584;28;20809;-69
2021/05/09 05:40:54;;;;;;;12.40;4.20;;;;;;;8.90;100.00;95932.13;5078312;28;20219;-68
2021/05/09 05:43:20;;;;;;;6.67;4.33;;;;;;;8.98;100.00;95927.63;5077663;28;20308;-70
2021/05/09 05:45:46;;;;;;;7.27;3.53;;;;;;;9.00;100.00;95936.16;5077184;28;20203;-68
2021/05/09 05:48:12;;;;;;;6.13;3.80;;;;;;;9.03;100.00;95930.53;5079252;28;20223;-71
2021/05/09 05:50:39;;;;;;;4.00;3.30;;;;;;;9.16;100.00;95930.78;5077334;28;20231;-71
2021/05/09 05:53:04;;;;;;;4.73;2.97;;;;;;;9.23;100.00;95931.72;5078152;28;20211;-68
2021/05/09 05:55:31;;;;;;;5.87;3.80;;;;;;;9.43;100.00;95927.59;5077877;28;20200;-70
2021/05/09 05:57:57;;;;;;;8.80;4.47;;;;;;;9.49;100.00;95932.97;5078231;28;20223;-71
2021/05/09 06:00:23;;;;;;;5.47;4.03;;;;;;;9.58;100.00;95928.47;5078186;28;20231;-70
2021/05/09 06:02:49;;;;;;;5.67;3.93;;;;;;;9.68;99.35;95935.09;5077440;28;20203;-70
2021/05/09 06:05:16;;;;;;;6.37;4.00;;;;;;;9.77;100.00;95931.38;5077965;28;20246;-70
2021/05/09 06:07:42;;;;;;;5.00;3.80;;;;;;;9.90;99.76;95928.94;5077928;28;20203;-71
2021/05/09 06:10:09;;;;;;;4.47;3.30;;;;;;;9.90;96.53;95923.69;5078032;28;20224;-71
2021/05/09 06:12:36;;;;;;;4.60;3.80;;;;;;;9.99;99.12;95920.84;5077246;28;20211;-71
2021/05/09 06:15:02;;;;;;;6.33;3.90;;;;;;;10.12;100.00;95923.66;5078011;28;20230;-71
2021/05/09 06:17:28;;;;;;;8.20;4.53;;;;;;;10.29;100.00;95917.19;5077358;28;20597;-72
2021/05/09 06:19:54;;;;;;;6.03;4.33;;;;;;;10.31;99.81;95917.84;5077559;28;20259;-69
2021/05/09 06:22:20;;;;;;;6.03;4.17;;;;;;;10.45;100.00;95924.88;5077212;28;20658;-69
2021/05/09 06:24:46;;;;;;;5.90;4.40;;;;;;;10.51;99.56;95925.00;5077977;28;20584;-70
2021/05/09 06:27:12;;;;;;;8.17;4.80;;;;;;;10.62;100.00;95921.88;5076060;28;20326;-71
2021/05/09 06:29:39;;;;;;;6.33;4.30;;;;;;;10.84;100.00;95922.72;5077098;28;20341;-71
2021/05/09 06:32:05;;;;;;;6.97;4.73;;;;;;;10.98;100.00;95917.41;5077049;28;20200;-71
2021/05/09 06:34:31;;;;;;;7.87;4.60;;;;;;;11.14;100.00;95920.63;5076735;28;20211;-71
2021/05/09 06:36:57;;;;;;;6.30;4.57;;;;;;;11.30;100.00;95917.75;5075912;28;21347;-70
2021/05/09 06:39:28;;;;;;;7.43;5.10;;;;;;;11.40;100.00;95915.59;5076711;28;20310;-68
2021/05/09 06:41:56;;;;;;;7.43;5.37;;;;;;;11.50;100.00;95917.97;5076916;28;20294;-71
2021/05/09 06:44:24;;;;;;;6.73;4.73;;;;;;;11.69;100.00;95912.84;5076802;28;20196;-71
2021/05/09 06:46:51;;;;;;;7.90;4.90;;;;;;;11.77;99.09;95905.59;5071911;28;20231;-71
2021/05/09 06:49:17;;;;;;;7.75;4.75;;;;;;;11.91;98.92;95899.38;5076852;28;20215;-71
2021/05/09 06:51:43;;;;;;;8.50;5.33;;;;;;;12.09;99.60;95898.88;5077412;28;20986;-68
2021/05/09 06:54:09;;;;;;;6.70;4.80;;;;;;;12.19;97.79;95898.34;5073147;28;20200;-71
2021/05/09 06:56:36;;;;;;;7.55;5.25;;;;;;;12.38;100.00;95891.53;5076916;28;20208;-71
2021/05/09 06:59:03;;;;;;;7.40;5.13;;;;;;;12.60;98.00;95890.41;5076529;28;20227;-70
2021/05/09 07:01:29;;;;;;;9.25;4.80;;;;;;;12.77;99.04;95897.81;5077187;28;20210;-70
2021/05/09 07:03:56;;;;;;;6.45;4.70;;;;;;;12.86;94.39;95899.28;5076174;28;20211;-71
2021/05/09 07:06:22;;;;;;;6.20;4.00;;;;;;;13.08;96.10;95896.28;5075250;28;20203;-69
2021/05/09 07:08:48;;;;;;;8.40;4.40;;;;;;;13.17;93.93;95894.28;5076596;28;20253;-71
2021/05/09 07:11:14;;;;;;;7.57;4.60;;;;;;;13.33;92.79;95902.66;5077241;28;20219;-71
2021/05/09 07:13:40;;;;;;;5.13;3.83;;;;;;;13.38;95.23;95893.06;5076983;28;21424;-70
2021/05/09 07:16:06;;;;;;;7.10;4.60;;;;;;;13.46;94.70;95890.22;5075605;28;20200;-71
2021/05/09 07:18:34;;;;;;;8.82;4.40;;;;;;;13.60;91.47;95888.41;5076677;28;20231;-70
2021/05/09 07:21:07;;;;;;;5.28;3.83;;;;;;;13.83;93.57;95891.47;5077763;28;20227;-71
2021/05/09 07:23:33;;;;;;;6.05;3.97;;;;;;;13.84;90.64;95891.25;5075635;28;20200;-71
2021/05/09 07:25:59;;;;;;;5.82;3.97;;;;;;;13.80;90.07;95889.22;5074500;28;20578;-69
2021/05/09 07:28:25;;;;;;;4.15;3.42;;;;;;;13.98;91.14;95896.31;5076949;28;20196;-69
2021/05/09 07:30:51;;;;;;;5.82;3.72;;;;;;;14.10;89.88;95893.91;5076046;28;20721;-71
2021/05/09 07:33:17;;;;;;;6.97;3.97;;;;;;;14.24;90.56;95887.53;5076112;28;20203;-72
2021/05/09 07:35:44;;;;;;;7.88;3.75;;;;;;;14.44;90.63;95888.31;5074592;28;20207;-71
2021/05/09 07:38:13;;;;;;;5.05;3.45;;;;;;;14.50;89.60;95890.94;5073931;28;20227;-69
2021/05/09 07:40:39;;;;;;;5.10;3.78;;;;;;;14.52;89.33;95893.38;5076497;28;20310;-71
2021/05/09 07:43:07;;;;;;;5.40;3.40;;;;;;;14.57;83.70;95901.53;5073721;28;20204;-69
2021/05/09 07:45:34;;;;;;;5.80;3.20;;;;;;;14.73;82.60;95907.19;5075732;28;20283;-68
2021/05/09 07:48:00;;;;;;;3.30;2.60;;;;;;;14.96;81.84;95896.88;5076787;28;20223;-70
2021/05/09 07:50:27;;;;;;;3.47;2.80;;;;;;;15.29;80.75;95891.19;5076060;28;20224;-70
2021/05/09 07:52:53;;;;;;;4.75;3.15;;;;;;;15.36;80.69;95888.50;5076308;28;20204;-71
2021/05/09 07:55:20;;;;;;;4.35;3.35;;;;;;;15.56;82.04;95894.50;5075151;28;20195;-72
2021/05/09 07:57:46;;;;;;;4.47;2.95;;;;;;;15.72;77.18;95883.31;5075248;28;20268;-72
2021/05/09 08:00:15;;;;;;;5.15;3.10;;;;;;;15.92;74.78;95880.28;5075848;28;20303;-69
2021/05/09 08:02:41;;;;;;;3.30;2.58;;;;;;;15.87;75.01;95877.47;5076608;28;20212;-72
2021/05/09 08:05:09;;;;;;;4.38;3.10;;;;;;;15.89;73.38;95879.91;5074891;28;20199;-70
2021/05/09 08:07:34;;;;;;;4.95;3.13;;;;;;;16.00;76.49;95876.56;5078704;28;20195;-69
2021/05/09 08:10:00;;;;;;;5.15;2.78;;;;;;;16.21;75.79;95873.47;5080013;28;20360;-71
2021/05/09 08:12:27;;;;;;;4.50;3.00;;;;;;;16.56;76.98;95868.19;5079937;28;20231;-70
2021/05/09 08:14:53;;;;;;;4.55;3.30;;;;;;;16.74;75.83;95870.03;5078910;28;20748;-69
2021/05/09 08:17:19;;;;;;;4.10;2.75;;;;;;;16.84;71.78;95865.81;5078865;28;20636;-71
2021/05/09 08:19:45;;;;;;;3.97;2.53;;;;;;;16.91;69.73;95876.38;5079386;28;20314;-69
2021/05/09 08:22:11;;;;;;;4.25;2.97;;;;;;;16.94;72.83;95865.28;5079831;28;20636;-71
2021/05/09 08:24:37;;;;;;;3.38;2.28;;;;;;;17.08;71.49;95866.72;5079367;28;20204;-72
2021/05/09 08:27:03;;;;;;;3.50;2.28;;;;;;;17.07;68.92;95865.09;5078478;28;20912;-71
2021/05/09 08:29:30;;;;;;;2.80;1.98;;;;;;;17.17;68.24;95858.19;5078645;28;20224;-70
2021/05/09 08:31:56;;;;;;;3.67;2.40;;;;;;;17.34;71.65;95862.69;5079747;28;20199;-73
2021/05/09 08:34:23;;;;;;;4.38;2.35;;;;;;;17.49;66.13;95857.75;5081374;28;20276;-73
2021/05/09 08:36:49;;;;;;;3.40;1.90;;;;;;;17.64;65.58;95862.63;5077535;28;20986;-73
2021/05/09 08:39:15;;;;;;;3.33;1.80;;;;;;;17.63;65.34;95861.84;5080923;28;20224;-73
2021/05/09 08:41:42;;;;;;;3.40;2.00;;;;;;;17.65;64.59;95856.28;5080185;28;20207;-73
2021/05/09 08:44:08;;;;;;;2.90;1.80;;;;;;;17.76;65.93;95851.75;5076208;28;20257;-73
2021/05/09 08:46:36;;;;;;;2.80;1.80;;;;;;;17.85;65.42;95842.38;5079704;28;20204;-74
2021/05/09 08:49:03;;;;;;;3.65;1.63;;;;;;;17.90;65.33;95847.84;5081345;28;20566;-74
2021/05/09 08:51:30;;;;;;;2.88;1.40;;;;;;;18.05;65.34;95850.03;5079833;28;20206;-73
2021/05/09 08:53:56;;;;;;;2.55;1.67;;;;;;;18.08;64.93;95844.25;5080216;28;20204;-73
2021/05/09 08:56:24;;;;;;;4.43;1.60;;;;;;;18.20;61.75;95845.91;5079796;28;20960;-74
2021/05/09 08:58:50;;;;;;;1.65;1.42;;;;;;;18.38;64.38;95846.56;5079863;28;20618;-74
2021/05/09 09:01:16;;;;;;;1.60;1.27;;;;;;;18.53;64.48;95835.41;5080905;28;20732;-73
2021/05/09 09:03:43;;;;;;;2.15;1.33;;;;;;;18.65;61.31;95837.00;5080508;28;20416;-73
2021/05/09 09:06:14;;;;;;;2.17;1.10;;;;;;;19.01;62.22;95836.66;5079963;28;20214;-73
2021/05/09 09:08:51;;;;;;;3.40;1.23;;;;;;;19.14;60.29;95828.38;5080283;28;20204;-73
2021/05/09 09:11:28;;;;;;;1.75;1.42;;;;;;;19.32;62.88;95822.84;5079925;28;20215;-74
2021/05/09 09:14:09;;;;;;;4.20;1.60;;;;;;;19.51;61.04;95825.06;5081214;28;20204;-74
2021/05/09 09:16:35;;;;;;;3.75;1.95;;;;;;;19.59;64.75;95811.31;5080827;28;20239;-73
2021/05/09 09:19:08;;;;;;;3.35;2.40;;;;;;;19.71;70.25;95817.38;5080415;28;20224;-74
2021/05/09 09:21:35;;;;;;;2.78;2.08;;;;;;;19.79;68.02;95808.94;5077540;28;20529;-73
2021/05/09 09:24:05;;;;;;;2.67;1.80;;;;;;;19.82;68.34;95806.59;5080119;28;20210;-73
2021/05/09 09:26:34;;;;;;;2.67;1.60;;;;;;;20.04;69.93;95806.69;5079153;28;20204;-74
2021/05/09 09:29:01;;;;;;;2.03;1.63;;;;;;;20.15;69.53;95801.25;5080222;28;20196;-73
2021/05/09 09:31:42;;;;;;;1.65;1.17;;;;;;;20.23;67.73;95798.16;5079517;28;20200;-74
2021/05/09 09:34:09;;;;;;;1.50;1.20;;;;;;;20.42;67.35;95799.47;5078999;28;20207;-74
2021/05/09 09:36:36;;;;;;;3.15;1.48;;;;;;;20.46;68.89;95795.25;5079909;28;20203;-74
2021/05/09 09:39:03;;;;;;;4.63;1.77;;;;;;;20.61;73.25;95788.22;5079149;28;20223;-74
2021/05/09 09:41:31;;;;;;;1.73;1.33;;;;;;;20.75;70.21;95785.97;5079886;28;20257;-74
2021/05/09 09:44:06;;;;;;;3.00;1.60;;;;;;;20.85;71.79;95782.38;5076529;28;20215;-74
2021/05/09 09:46:34;;;;;;;1.90;1.30;;;;;;;21.06;65.41;95776.16;5077122;28;21148;-74
2021/05/09 09:49:01;;;;;;;2.47;1.20;;;;;;;21.24;68.50;95777.69;5077656;28;20200;-74
2021/05/09 09:51:28;;;;;;;3.92;1.75;;;;;;;21.26;63.17;95781.75;5078782;28;20323;-74
2021/05/09 09:53:56;;;;;;;3.47;1.55;;;;;;;21.43;64.74;95769.84;5079356;28;20207;-73
2021/05/09 09:56:23;;;;;;;2.38;1.60;;;;;;;21.67;61.86;95770.34;5078328;28;20260;-73
2021/05/09 09:58:54;;;;;;;29.77;15.27;;;;;;;22.04;65.46;95769.25;5078970;28;20314;-74
2021/05/09 10:01:23;;;;;;;7.22;2.97;;;;;;;22.32;63.16;95766.25;5079326;28;20307;-74
2021/05/09 10:03:50;;;;;;;3.28;1.50;;;;;;;22.77;61.23;95760.00;5079111;28;20200;-73
2021/05/09 10:06:17;;;;;;;4.32;2.42;;;;;;;23.01;65.34;95753.09;5078766;28;20200;-74
2021/05/09 10:08:45;;;;;;;2.25;1.30;;;;;;;23.48;59.37;95748.34;5079219;28;20204;-73
2021/05/09 10:11:11;;;;;;;1.42;1.10;;;;;;;23.40;57.08;95747.00;5079150;28;20227;-74
2021/05/09 10:13:37;;;;;;;2.22;1.48;;;;;;;23.23;61.07;95742.13;5079240;28;20286;-73
2021/05/09 10:16:05;;;;;;;1.42;1.20;;;;;;;22.97;57.98;95737.75;5078992;28;21267;-73
2021/05/09 10:18:32;;;;;;;2.05;1.20;;;;;;;22.91;57.29;95746.88;5078614;28;20595;-74
2021/05/09 10:20:58;;;;;;;2.22;1.00;;;;;;;22.91;59.88;95741.50;5078918;28;20228;-74
2021/05/09 10:23:24;;;;;;;1.75;1.20;;;;;;;22.94;56.66;95739.09;5079202;28;20203;-74
2021/05/09 10:25:54;;;;;;;1.55;1.20;;;;;;;22.77;56.40;95735.84;5078682;28;20203;-74
2021/05/09 10:28:22;;;;;;;2.53;1.38;;;;;;;22.89;56.71;95732.91;5078576;28;20192;-74
2021/05/09 10:30:53;;;;;;;2.08;1.30;;;;;;;23.06;60.03;95728.13;5078663;28;20228;-74
2021/05/09 10:33:47;;;;;;;2.10;1.35;;;;;;;23.19;57.47;95712.28;5079555;28;20196;-74
2021/05/09 10:36:39;;;;;;;2.97;1.27;;;;;;;23.30;59.88;95706.63;5077894;28;20219;-74
2021/05/09 10:39:10;;;;;;;2.20;1.60;;;;;;;23.41;56.89;95702.09;5078437;28;20259;-74
2021/05/09 10:41:58;;;;;;;2.17;1.50;;;;;;;23.59;63.09;95696.97;5079215;28;20199;-74
2021/05/09 10:44:41;;;;;;;2.30;1.40;;;;;;;23.97;58.88;95696.44;5078186;28;20235;-74
2021/05/09 10:47:12;;;;;;;1.65;1.25;;;;;;;24.31;57.88;95686.63;5078193;28;20298;-74
2021/05/09 10:50:23;;;;;;;2.03;1.17;;;;;;;24.38;57.89;95692.53;5077573;28;20274;-73
2021/05/09 10:52:50;;;;;;;1.55;1.08;;;;;;;24.55;56.61;95674.16;5077834;28;20638;-73
2021/05/09 10:55:38;;;;;;;2.13;1.17;;;;;;;24.79;56.23;95665.94;5077856;28;20210;-74
2021/05/09 10:58:05;;;;;;;1.77;1.33;;;;;;;25.05;49.19;95664.75;5077741;28;20412;-73
2021/05/09 11:01:04;;;;;;;2.00;1.10;;;;;;;25.21;54.33;95661.63;5077201;28;20227;-73
2021/05/09 11:03:54;;;;;;;1.60;1.17;;;;;;;25.13;53.76;95653.34;5077598;28;20208;-73
2021/05/09 11:06:37;;;;;;;2.10;1.33;;;;;;;25.11;54.98;95652.03;5077000;28;20195;-73
2021/05/09 11:09:05;;;;;;;2.35;1.30;;;;;;;25.15;55.48;95653.84;5076759;28;20199;-73
2021/05/09 11:12:03;;;;;;;1.40;1.27;;;;;;;25.39;56.15;95636.69;5077428;28;20212;-73
2021/05/09 11:14:34;;;;;;;2.58;1.25;;;;;;;25.56;52.86;95631.69;5077342;28;21048;-73
2021/05/09 11:17:03;;;;;;;3.65;1.20;;;;;;;25.63;55.59;95636.75;5076436;28;20207;-73
2021/05/09 11:19:51;;;;;;;2.40;1.15;;;;;;;25.81;54.50;95622.56;5077643;28;20232;-73
2021/05/09 11:22:25;;;;;;;2.05;1.20;;;;;;;25.82;52.97;95629.56;5073669;28;20207;-73
2021/05/09 11:24:56;;;;;;;2.75;1.20;;;;;;;25.96;53.15;95634.78;5077063;28;20207;-73
2021/05/09 11:27:22;;;;;;;3.05;1.40;;;;;;;26.28;51.94;95632.25;5077769;28;20203;-73
2021/05/09 11:29:49;;;;;;;1.85;1.17;;;;;;;26.59;51.52;95636.22;5076645;28;21042;-73
2021/05/09 11:32:17;;;;;;;0.98;0.88;;;;;;;26.95;41.30;95629.22;5076908;28;20204;-73
2021/05/09 11:34:54;;;;;;;1.55;1.20;;;;;;;27.08;45.32;95624.72;5077171;28;20196;-73
2021/05/09 11:37:23;;;;;;;1.67;1.20;;;;;;;27.01;44.72;95623.50;5075007;28;20215;-73